sensor_id;sensor_type;location;lat;lon;timestamp;pressure;altitude;pressure_sealevel;temperature;humidity
45541;BME280;31265;49.680;8.608;2023-03-01T00:01:47;101627.53;;;-1.89;100.00
45541;BME280;31265;49.680;8.608;2023-03-01T00:04:17;101626.38;;;-2.01;100.00
45541;BME280;31265;49.680;8.608;2023-03-01T00:06:45;101629.81;;;-2.10;100.00
45541;BME280;31265;49.680;8.608;2023-03-01T00:09:14;101625.38;;;-2.17;100.00
45541;BME280;31265;49.680;8.608;2023-03-01T00:11:43;101626.88;;;-2.16;100.00
45541;BME280;31265;49.680;8.608;2023-03-01T00:14:13;101626.00;;;-2.12;100.00
45541;BME280;31265;49.680;8.608;2023-03-01T00:16:43;101628.91;;;-2.07;100.00
45541;BME280;31265;49.680;8.608;2023-03-01T00:19:14;101629.16;;;-1.92;100.00
45541;BME280;31265;49.680;8.608;2023-03-01T00:21:45;101626.69;;;-1.46;100.00
45541;BME280;31265;49.680;8.608;2023-03-01T00:24:14;101633.13;;;-1.31;100.00
45541;BME280;31265;49.680;8.608;2023-03-01T00:26:42;101628.78;;;-1.19;100.00
45541;BME280;31265;49.680;8.608;2023-03-01T00:29:17;101633.88;;;-0.99;100.00
45541;BME280;31265;49.680;8.608;2023-03-01T00:31:47;101629.00;;;-0.95;100.00
45541;BME280;31265;49.680;8.608;2023-03-01T00:34:16;101632.69;;;-0.89;100.00
45541;BME280;31265;49.680;8.608;2023-03-01T00:36:47;101624.81;;;-0.87;100.00
45541;BME280;31265;49.680;8.608;2023-03-01T00:39:15;101626.00;;;-0.88;100.00
45541;BME280;31265;49.680;8.608;2023-03-01T00:41:44;101628.41;;;-0.90;100.00
45541;BME280;31265;49.680;8.608;2023-03-01T00:44:13;101627.19;;;-0.98;100.00
45541;BME280;31265;49.680;8.608;2023-03-01T00:46:43;101629.03;;;-0.85;100.00
45541;BME280;31265;49.680;8.608;2023-03-01T00:49:11;101630.56;;;-0.84;100.00
45541;BME280;31265;49.680;8.608;2023-03-01T00:51:40;101620.72;;;-0.91;100.00
45541;BME280;31265;49.680;8.608;2023-03-01T00:54:10;101622.56;;;-0.70;100.00
45541;BME280;31265;49.680;8.608;2023-03-01T00:56:41;101614.97;;;-0.75;100.00
45541;BME280;31265;49.680;8.608;2023-03-01T00:59:09;101616.34;;;-0.70;100.00
45541;BME280;31265;49.680;8.608;2023-03-01T01:01:39;101612.72;;;-0.67;100.00
45541;BME280;31265;49.680;8.608;2023-03-01T01:04:09;101602.59;;;-0.67;100.00
45541;BME280;31265;49.680;8.608;2023-03-01T01:06:40;101593.50;;;-0.63;100.00
45541;BME280;31265;49.680;8.608;2023-03-01T01:09:12;101600.16;;;-0.46;100.00
45541;BME280;31265;49.680;8.608;2023-03-01T01:11:46;101592.59;;;-0.51;100.00
45541;BME280;31265;49.680;8.608;2023-03-01T01:14:16;101585.00;;;-0.66;100.00
45541;BME280;31265;49.680;8.608;2023-03-01T01:16:44;101572.44;;;-0.63;100.00
45541;BME280;31265;49.680;8.608;2023-03-01T01:19:14;101573.03;;;-0.68;100.00
45541;BME280;31265;49.680;8.608;2023-03-01T01:21:43;101574.66;;;-0.89;100.00
45541;BME280;31265;49.680;8.608;2023-03-01T01:24:14;101564.38;;;-1.03;100.00
45541;BME280;31265;49.680;8.608;2023-03-01T01:26:42;101573.84;;;-1.17;100.00
45541;BME280;31265;49.680;8.608;2023-03-01T01:29:12;101570.19;;;-1.33;100.00
45541;BME280;31265;49.680;8.608;2023-03-01T01:31:42;101565.78;;;-1.39;100.00
45541;BME280;31265;49.680;8.608;2023-03-01T01:34:14;101554.31;;;-1.25;100.00
45541;BME280;31265;49.680;8.608;2023-03-01T01:36:44;101552.31;;;-1.34;100.00
45541;BME280;31265;49.680;8.608;2023-03-01T01:39:17;101546.66;;;-1.48;100.00
45541;BME280;31265;49.680;8.608;2023-03-01T01:41:46;101550.13;;;-1.57;100.00
45541;BME280;31265;49.680;8.608;2023-03-01T01:44:17;101543.75;;;-1.23;100.00
45541;BME280;31265;49.680;8.608;2023-03-01T01:46:49;101542.66;;;-1.35;100.00
45541;BME280;31265;49.680;8.608;2023-03-01T01:49:27;101545.06;;;-1.37;100.00
45541;BME280;31265;49.680;8.608;2023-03-01T01:52:04;101537.34;;;-1.29;100.00
45541;BME280;31265;49.680;8.608;2023-03-01T01:54:40;101542.09;;;-1.20;100.00
45541;BME280;31265;49.680;8.608;2023-03-01T01:57:13;101546.94;;;-1.15;100.00
45541;BME280;31265;49.680;8.608;2023-03-01T01:59:45;101540.91;;;-1.01;100.00
45541;BME280;31265;49.680;8.608;2023-03-01T02:02:15;101535.16;;;-1.03;100.00
45541;BME280;31265;49.680;8.608;2023-03-01T02:04:43;101537.69;;;-1.18;100.00
45541;BME280;31265;49.680;8.608;2023-03-01T02:07:15;101540.34;;;-0.87;100.00
45541;BME280;31265;49.680;8.608;2023-03-01T02:09:49;101527.59;;;-0.99;100.00
45541;BME280;31265;49.680;8.608;2023-03-01T02:12:20;101536.81;;;-1.05;100.00
45541;BME280;31265;49.680;8.608;2023-03-01T02:14:50;101528.34;;;-0.98;100.00
45541;BME280;31265;49.680;8.608;2023-03-01T02:17:19;101538.03;;;-0.97;100.00
45541;BME280;31265;49.680;8.608;2023-03-01T02:19:58;101527.28;;;-1.10;100.00
45541;BME280;31265;49.680;8.608;2023-03-01T02:22:36;101528.78;;;-1.09;100.00
45541;BME280;31265;49.680;8.608;2023-03-01T02:27:53;101527.88;;;-1.06;100.00
45541;BME280;31265;49.680;8.608;2023-03-01T02:30:27;101528.63;;;-1.15;100.00
45541;BME280;31265;49.680;8.608;2023-03-01T02:32:58;101521.34;;;-1.18;100.00
45541;BME280;31265;49.680;8.608;2023-03-01T02:35:32;101530.25;;;-1.26;100.00
45541;BME280;31265;49.680;8.608;2023-03-01T02:38:03;101529.03;;;-1.35;100.00
45541;BME280;31265;49.680;8.608;2023-03-01T02:40:36;101521.19;;;-1.23;100.00
45541;BME280;31265;49.680;8.608;2023-03-01T02:43:08;101520.59;;;-1.18;100.00
45541;BME280;31265;49.680;8.608;2023-03-01T02:45:47;101514.56;;;-1.13;100.00
45541;BME280;31265;49.680;8.608;2023-03-01T02:48:16;101511.81;;;-1.04;100.00
45541;BME280;31265;49.680;8.608;2023-03-01T02:50:55;101507.63;;;-0.96;100.00
45541;BME280;31265;49.680;8.608;2023-03-01T02:53:35;101511.25;;;-0.80;100.00
45541;BME280;31265;49.680;8.608;2023-03-01T02:56:07;101505.34;;;-0.70;100.00
45541;BME280;31265;49.680;8.608;2023-03-01T02:58:40;101503.06;;;-0.53;100.00
45541;BME280;31265;49.680;8.608;2023-03-01T03:01:14;101503.38;;;-0.51;100.00
45541;BME280;31265;49.680;8.608;2023-03-01T03:03:43;101502.44;;;-0.48;100.00
45541;BME280;31265;49.680;8.608;2023-03-01T03:06:12;101496.09;;;-0.54;100.00
45541;BME280;31265;49.680;8.608;2023-03-01T03:08:41;101494.59;;;-0.82;100.00
45541;BME280;31265;49.680;8.608;2023-03-01T03:11:10;101491.56;;;-0.94;100.00
45541;BME280;31265;49.680;8.608;2023-03-01T03:13:39;101486.69;;;-1.17;100.00
45541;BME280;31265;49.680;8.608;2023-03-01T03:16:18;101484.84;;;-1.30;100.00
45541;BME280;31265;49.680;8.608;2023-03-01T03:18:49;101486.03;;;-1.49;100.00
45541;BME280;31265;49.680;8.608;2023-03-01T03:21:17;101477.84;;;-1.49;100.00
45541;BME280;31265;49.680;8.608;2023-03-01T03:23:46;101479.03;;;-1.59;100.00
45541;BME280;31265;49.680;8.608;2023-03-01T03:26:14;101476.28;;;-1.68;100.00
45541;BME280;31265;49.680;8.608;2023-03-01T03:28:43;101473.56;;;-1.78;100.00
45541;BME280;31265;49.680;8.608;2023-03-01T03:31:13;101473.84;;;-1.76;100.00
45541;BME280;31265;49.680;8.608;2023-03-01T03:33:43;101473.25;;;-1.80;100.00
45541;BME280;31265;49.680;8.608;2023-03-01T03:36:15;101475.47;;;-1.87;100.00
45541;BME280;31265;49.680;8.608;2023-03-01T03:38:45;101465.47;;;-1.90;100.00
45541;BME280;31265;49.680;8.608;2023-03-01T03:41:14;101459.34;;;-1.73;100.00
45541;BME280;31265;49.680;8.608;2023-03-01T03:43:42;101467.25;;;-1.56;100.00
45541;BME280;31265;49.680;8.608;2023-03-01T03:46:11;101463.66;;;-1.53;100.00
45541;BME280;31265;49.680;8.608;2023-03-01T03:48:41;101459.22;;;-1.60;100.00
45541;BME280;31265;49.680;8.608;2023-03-01T03:51:13;101465.59;;;-1.54;100.00
45541;BME280;31265;49.680;8.608;2023-03-01T03:53:43;101459.25;;;-1.41;100.00
45541;BME280;31265;49.680;8.608;2023-03-01T03:56:11;101461.84;;;-1.38;100.00
45541;BME280;31265;49.680;8.608;2023-03-01T03:58:40;101457.31;;;-1.41;100.00
45541;BME280;31265;49.680;8.608;2023-03-01T04:01:08;101461.72;;;-1.43;100.00
45541;BME280;31265;49.680;8.608;2023-03-01T04:03:38;101460.03;;;-1.41;100.00
45541;BME280;31265;49.680;8.608;2023-03-01T04:06:06;101466.25;;;-1.40;100.00
45541;BME280;31265;49.680;8.608;2023-03-01T04:08:36;101467.91;;;-1.34;100.00
45541;BME280;31265;49.680;8.608;2023-03-01T04:11:08;101466.72;;;-1.14;100.00
45541;BME280;31265;49.680;8.608;2023-03-01T04:13:57;101459.63;;;-1.02;100.00
45541;BME280;31265;49.680;8.608;2023-03-01T04:16:26;101457.34;;;-1.04;100.00
45541;BME280;31265;49.680;8.608;2023-03-01T04:18:55;101462.78;;;-1.04;100.00
45541;BME280;31265;49.680;8.608;2023-03-01T04:21:26;101455.69;;;-1.01;100.00
45541;BME280;31265;49.680;8.608;2023-03-01T04:23:56;101456.28;;;-1.06;100.00
45541;BME280;31265;49.680;8.608;2023-03-01T04:26:24;101457.34;;;-0.95;100.00
45541;BME280;31265;49.680;8.608;2023-03-01T04:28:54;101454.94;;;-0.93;100.00
45541;BME280;31265;49.680;8.608;2023-03-01T04:31:22;101458.72;;;-0.90;100.00
45541;BME280;31265;49.680;8.608;2023-03-01T04:33:52;101455.84;;;-0.96;100.00
45541;BME280;31265;49.680;8.608;2023-03-01T04:36:23;101462.66;;;-0.91;100.00
45541;BME280;31265;49.680;8.608;2023-03-01T04:38:52;101459.31;;;-0.86;100.00
45541;BME280;31265;49.680;8.608;2023-03-01T04:41:23;101461.13;;;-0.83;100.00
45541;BME280;31265;49.680;8.608;2023-03-01T04:43:52;101459.78;;;-0.88;100.00
45541;BME280;31265;49.680;8.608;2023-03-01T04:46:21;101453.41;;;-0.66;100.00
45541;BME280;31265;49.680;8.608;2023-03-01T04:48:49;101462.19;;;-0.71;100.00
45541;BME280;31265;49.680;8.608;2023-03-01T04:51:20;101461.59;;;-0.75;100.00
45541;BME280;31265;49.680;8.608;2023-03-01T04:53:48;101458.09;;;-0.76;100.00
45541;BME280;31265;49.680;8.608;2023-03-01T04:56:17;101461.75;;;-0.79;100.00
45541;BME280;31265;49.680;8.608;2023-03-01T04:58:47;101461.88;;;-0.73;100.00
45541;BME280;31265;49.680;8.608;2023-03-01T05:01:17;101467.66;;;-0.71;100.00
45541;BME280;31265;49.680;8.608;2023-03-01T05:03:48;101468.22;;;-0.67;100.00
45541;BME280;31265;49.680;8.608;2023-03-01T05:06:18;101462.81;;;-0.76;100.00
45541;BME280;31265;49.680;8.608;2023-03-01T05:08:49;101454.47;;;-0.82;100.00
45541;BME280;31265;49.680;8.608;2023-03-01T05:11:17;101451.91;;;-0.76;100.00
45541;BME280;31265;49.680;8.608;2023-03-01T05:13:47;101452.66;;;-0.76;100.00
45541;BME280;31265;49.680;8.608;2023-03-01T05:16:16;101456.75;;;-0.80;100.00
45541;BME280;31265;49.680;8.608;2023-03-01T05:18:46;101453.44;;;-0.94;100.00
45541;BME280;31265;49.680;8.608;2023-03-01T05:21:14;101447.66;;;-0.96;100.00
45541;BME280;31265;49.680;8.608;2023-03-01T05:23:43;101443.13;;;-0.99;100.00
45541;BME280;31265;49.680;8.608;2023-03-01T05:26:12;101443.88;;;-1.08;100.00
45541;BME280;31265;49.680;8.608;2023-03-01T05:29:02;101449.47;;;-1.20;100.00
45541;BME280;31265;49.680;8.608;2023-03-01T05:31:31;101447.22;;;-1.31;100.00
45541;BME280;31265;49.680;8.608;2023-03-01T05:33:59;101448.41;;;-1.32;100.00
45541;BME280;31265;49.680;8.608;2023-03-01T05:36:28;101449.00;;;-1.28;100.00
45541;BME280;31265;49.680;8.608;2023-03-01T05:38:57;101446.59;;;-1.35;100.00
45541;BME280;31265;49.680;8.608;2023-03-01T05:41:25;101442.81;;;-1.38;100.00
45541;BME280;31265;49.680;8.608;2023-03-01T05:43:55;101445.38;;;-1.43;100.00
45541;BME280;31265;49.680;8.608;2023-03-01T05:46:24;101441.44;;;-1.42;100.00
45541;BME280;31265;49.680;8.608;2023-03-01T05:48:53;101446.84;;;-1.52;100.00
45541;BME280;31265;49.680;8.608;2023-03-01T05:51:22;101449.53;;;-1.61;100.00
45541;BME280;31265;49.680;8.608;2023-03-01T05:53:50;101446.66;;;-1.66;100.00
45541;BME280;31265;49.680;8.608;2023-03-01T05:56:19;101446.06;;;-1.61;100.00
45541;BME280;31265;49.680;8.608;2023-03-01T05:58:49;101447.44;;;-1.57;100.00
45541;BME280;31265;49.680;8.608;2023-03-01T06:01:17;101454.53;;;-1.59;100.00
45541;BME280;31265;49.680;8.608;2023-03-01T06:03:47;101448.97;;;-1.56;100.00
45541;BME280;31265;49.680;8.608;2023-03-01T06:06:16;101441.09;;;-1.54;100.00
45541;BME280;31265;49.680;8.608;2023-03-01T06:08:45;101446.13;;;-1.43;100.00
45541;BME280;31265;49.680;8.608;2023-03-01T06:11:14;101429.78;;;-1.43;100.00
45541;BME280;31265;49.680;8.608;2023-03-01T06:13:45;101443.09;;;-1.45;100.00
45541;BME280;31265;49.680;8.608;2023-03-01T06:16:14;101444.75;;;-1.29;100.00
45541;BME280;31265;49.680;8.608;2023-03-01T06:18:42;101448.72;;;-1.21;100.00
45541;BME280;31265;49.680;8.608;2023-03-01T06:21:15;101447.38;;;-1.16;100.00
45541;BME280;31265;49.680;8.608;2023-03-01T06:23:43;101444.16;;;-1.24;100.00
45541;BME280;31265;49.680;8.608;2023-03-01T06:26:14;101437.66;;;-1.26;100.00
45541;BME280;31265;49.680;8.608;2023-03-01T06:28:43;101431.78;;;-1.16;100.00
45541;BME280;31265;49.680;8.608;2023-03-01T06:31:17;101436.47;;;-1.07;100.00
45541;BME280;31265;49.680;8.608;2023-03-01T06:33:52;101439.19;;;-0.98;100.00
45541;BME280;31265;49.680;8.608;2023-03-01T06:36:21;101439.19;;;-0.98;100.00
45541;BME280;31265;49.680;8.608;2023-03-01T06:38:50;101441.47;;;-1.05;100.00
45541;BME280;31265;49.680;8.608;2023-03-01T06:41:18;101441.00;;;-0.95;100.00
45541;BME280;31265;49.680;8.608;2023-03-01T06:43:47;101442.81;;;-0.92;100.00
45541;BME280;31265;49.680;8.608;2023-03-01T06:46:15;101445.09;;;-0.81;100.00
45541;BME280;31265;49.680;8.608;2023-03-01T06:48:44;101442.69;;;-0.79;100.00
45541;BME280;31265;49.680;8.608;2023-03-01T06:51:12;101438.25;;;-0.67;100.00
45541;BME280;31265;49.680;8.608;2023-03-01T06:53:43;101433.53;;;-0.57;100.00
45541;BME280;31265;49.680;8.608;2023-03-01T06:56:11;101430.34;;;-0.47;100.00
45541;BME280;31265;49.680;8.608;2023-03-01T06:58:40;101448.84;;;-0.51;100.00
45541;BME280;31265;49.680;8.608;2023-03-01T07:01:13;101434.25;;;-0.38;100.00
45541;BME280;31265;49.680;8.608;2023-03-01T07:03:46;101432.38;;;-0.23;100.00
45541;BME280;31265;49.680;8.608;2023-03-01T07:06:15;101429.00;;;-0.09;100.00
45541;BME280;31265;49.680;8.608;2023-03-01T07:08:45;101430.31;;;0.05;100.00
45541;BME280;31265;49.680;8.608;2023-03-01T07:11:13;101428.88;;;0.19;100.00
45541;BME280;31265;49.680;8.608;2023-03-01T07:13:42;101430.69;;;0.22;100.00
45541;BME280;31265;49.680;8.608;2023-03-01T07:16:11;101421.44;;;0.19;100.00
45541;BME280;31265;49.680;8.608;2023-03-01T07:18:42;101420.06;;;0.24;100.00
45541;BME280;31265;49.680;8.608;2023-03-01T07:21:12;101424.59;;;0.27;100.00
45541;BME280;31265;49.680;8.608;2023-03-01T07:23:41;101418.50;;;0.56;100.00
45541;BME280;31265;49.680;8.608;2023-03-01T07:26:14;101424.31;;;0.73;100.00
45541;BME280;31265;49.680;8.608;2023-03-01T07:28:43;101413.72;;;0.66;100.00
45541;BME280;31265;49.680;8.608;2023-03-01T07:31:12;101421.88;;;0.75;100.00
45541;BME280;31265;49.680;8.608;2023-03-01T07:33:40;101411.63;;;0.85;100.00
45541;BME280;31265;49.680;8.608;2023-03-01T07:36:08;101414.97;;;1.19;100.00
45541;BME280;31265;49.680;8.608;2023-03-01T07:38:37;101416.03;;;1.21;100.00
45541;BME280;31265;49.680;8.608;2023-03-01T07:41:05;101404.06;;;1.34;100.00
45541;BME280;31265;49.680;8.608;2023-03-01T07:43:35;101407.16;;;1.26;100.00
45541;BME280;31265;49.680;8.608;2023-03-01T07:46:03;101411.84;;;1.41;100.00
45541;BME280;31265;49.680;8.608;2023-03-01T07:48:33;101402.72;;;1.44;100.00
45541;BME280;31265;49.680;8.608;2023-03-01T07:51:04;101395.66;;;1.52;100.00
45541;BME280;31265;49.680;8.608;2023-03-01T07:53:34;101401.94;;;1.58;100.00
45541;BME280;31265;49.680;8.608;2023-03-01T07:56:03;101402.34;;;1.66;100.00
45541;BME280;31265;49.680;8.608;2023-03-01T07:58:35;101410.34;;;1.55;100.00
45541;BME280;31265;49.680;8.608;2023-03-01T08:01:05;101399.41;;;1.69;100.00
45541;BME280;31265;49.680;8.608;2023-03-01T08:03:34;101398.81;;;1.80;100.00
45541;BME280;31265;49.680;8.608;2023-03-01T08:06:04;101391.38;;;1.81;100.00
45541;BME280;31265;49.680;8.608;2023-03-01T08:08:33;101393.63;;;1.82;100.00
45541;BME280;31265;49.680;8.608;2023-03-01T08:11:04;101387.88;;;1.65;100.00
45541;BME280;31265;49.680;8.608;2023-03-01T08:13:34;101381.97;;;1.52;100.00
45541;BME280;31265;49.680;8.608;2023-03-01T08:16:04;101386.97;;;1.68;100.00
45541;BME280;31265;49.680;8.608;2023-03-01T08:18:34;101382.63;;;1.62;100.00
45541;BME280;31265;49.680;8.608;2023-03-01T08:21:04;101380.69;;;1.83;100.00
45541;BME280;31265;49.680;8.608;2023-03-01T08:23:32;101383.38;;;1.98;100.00
45541;BME280;31265;49.680;8.608;2023-03-01T08:26:06;101381.28;;;2.07;100.00
45541;BME280;31265;49.680;8.608;2023-03-01T08:28:36;101389.78;;;2.30;100.00
45541;BME280;31265;49.680;8.608;2023-03-01T08:31:13;101386.50;;;2.05;100.00
45541;BME280;31265;49.680;8.608;2023-03-01T08:33:42;101386.69;;;2.02;100.00
45541;BME280;31265;49.680;8.608;2023-03-01T08:36:11;101378.28;;;2.05;100.00
45541;BME280;31265;49.680;8.608;2023-03-01T08:38:40;101389.59;;;2.33;100.00
45541;BME280;31265;49.680;8.608;2023-03-01T08:41:09;101379.78;;;2.06;100.00
45541;BME280;31265;49.680;8.608;2023-03-01T08:43:39;101380.13;;;2.14;100.00
45541;BME280;31265;49.680;8.608;2023-03-01T08:46:08;101373.97;;;2.19;100.00
45541;BME280;31265;49.680;8.608;2023-03-01T08:48:37;101375.97;;;2.39;100.00
45541;BME280;31265;49.680;8.608;2023-03-01T08:51:09;101362.34;;;2.65;100.00
45541;BME280;31265;49.680;8.608;2023-03-01T08:53:38;101358.63;;;2.68;100.00
45541;BME280;31265;49.680;8.608;2023-03-01T08:56:07;101359.72;;;3.03;100.00
45541;BME280;31265;49.680;8.608;2023-03-01T08:58:36;101357.34;;;3.16;100.00
45541;BME280;31265;49.680;8.608;2023-03-01T09:01:11;101356.59;;;3.15;93.45
45541;BME280;31265;49.680;8.608;2023-03-01T09:03:40;101350.44;;;2.94;93.96
45541;BME280;31265;49.680;8.608;2023-03-01T09:06:09;101359.03;;;3.08;97.96
45541;BME280;31265;49.680;8.608;2023-03-01T09:08:40;101355.09;;;3.14;97.30
45541;BME280;31265;49.680;8.608;2023-03-01T09:11:10;101349.69;;;3.26;93.31
45541;BME280;31265;49.680;8.608;2023-03-01T09:13:38;101342.91;;;3.21;93.60
45541;BME280;31265;49.680;8.608;2023-03-01T09:16:13;101351.16;;;3.21;93.00
45541;BME280;31265;49.680;8.608;2023-03-01T09:18:42;101345.38;;;3.19;90.04
45541;BME280;31265;49.680;8.608;2023-03-01T09:21:12;101343.03;;;3.32;95.83
45541;BME280;31265;49.680;8.608;2023-03-01T09:23:44;101327.75;;;3.26;90.46
45541;BME280;31265;49.680;8.608;2023-03-01T09:26:15;101330.59;;;3.37;90.39
45541;BME280;31265;49.680;8.608;2023-03-01T09:28:46;101326.16;;;3.45;89.27
45541;BME280;31265;49.680;8.608;2023-03-01T09:31:17;101329.44;;;3.49;88.72
45541;BME280;31265;49.680;8.608;2023-03-01T09:33:49;101320.78;;;3.62;87.96
45541;BME280;31265;49.680;8.608;2023-03-01T09:36:19;101327.13;;;3.79;94.50
45541;BME280;31265;49.680;8.608;2023-03-01T09:38:49;101323.66;;;3.84;88.27
45541;BME280;31265;49.680;8.608;2023-03-01T09:41:38;101315.72;;;3.98;86.40
45541;BME280;31265;49.680;8.608;2023-03-01T09:44:18;101324.19;;;3.88;85.29
45541;BME280;31265;49.680;8.608;2023-03-01T09:46:55;101314.38;;;3.76;84.62
45541;BME280;31265;49.680;8.608;2023-03-01T09:49:25;101315.50;;;3.96;86.09
45541;BME280;31265;49.680;8.608;2023-03-01T09:51:59;101313.25;;;4.00;85.02
45541;BME280;31265;49.680;8.608;2023-03-01T09:54:28;101316.38;;;4.30;83.94
45541;BME280;31265;49.680;8.608;2023-03-01T09:57:07;101308.69;;;4.51;85.55
45541;BME280;31265;49.680;8.608;2023-03-01T09:59:52;101318.47;;;4.58;77.70
45541;BME280;31265;49.680;8.608;2023-03-01T10:02:28;101319.38;;;4.32;81.12
45541;BME280;31265;49.680;8.608;2023-03-01T10:05:06;101316.69;;;4.43;80.33
45541;BME280;31265;49.680;8.608;2023-03-01T10:07:48;101317.44;;;4.49;78.20
45541;BME280;31265;49.680;8.608;2023-03-01T10:10:29;101313.94;;;4.55;80.52
45541;BME280;31265;49.680;8.608;2023-03-01T10:13:03;101313.75;;;4.81;76.91
45541;BME280;31265;49.680;8.608;2023-03-01T10:15:39;101308.25;;;4.81;77.74
45541;BME280;31265;49.680;8.608;2023-03-01T10:18:16;101305.78;;;4.94;78.32
45541;BME280;31265;49.680;8.608;2023-03-01T10:20:50;101303.28;;;4.96;74.33
45541;BME280;31265;49.680;8.608;2023-03-01T10:23:22;101296.50;;;4.74;77.18
45541;BME280;31265;49.680;8.608;2023-03-01T10:26:05;101303.75;;;4.89;75.38
45541;BME280;31265;49.680;8.608;2023-03-01T10:28:44;101290.75;;;4.84;75.52
45541;BME280;31265;49.680;8.608;2023-03-01T10:31:20;101291.53;;;5.01;73.58
45541;BME280;31265;49.680;8.608;2023-03-01T10:33:56;101288.28;;;4.97;75.59
45541;BME280;31265;49.680;8.608;2023-03-01T10:36:26;101285.78;;;4.88;76.60
45541;BME280;31265;49.680;8.608;2023-03-01T10:38:56;101284.25;;;5.09;75.57
45541;BME280;31265;49.680;8.608;2023-03-01T10:41:27;101277.25;;;5.42;76.52
45541;BME280;31265;49.680;8.608;2023-03-01T10:43:57;101282.53;;;5.23;72.11
45541;BME280;31265;49.680;8.608;2023-03-01T10:46:28;101268.03;;;5.17;71.93
45541;BME280;31265;49.680;8.608;2023-03-01T10:49:22;101264.00;;;5.24;74.04
45541;BME280;31265;49.680;8.608;2023-03-01T10:51:53;101260.75;;;5.42;73.29
45541;BME280;31265;49.680;8.608;2023-03-01T10:54:25;101268.50;;;5.32;71.19
45541;BME280;31265;49.680;8.608;2023-03-01T10:56:56;101264.22;;;5.48;71.55
45541;BME280;31265;49.680;8.608;2023-03-01T10:59:27;101261.72;;;5.45;69.54
45541;BME280;31265;49.680;8.608;2023-03-01T11:02:15;101251.97;;;5.49;70.73
45541;BME280;31265;49.680;8.608;2023-03-01T11:05:16;101242.69;;;5.52;69.73
45541;BME280;31265;49.680;8.608;2023-03-01T11:07:48;101243.41;;;5.58;69.34
45541;BME280;31265;49.680;8.608;2023-03-01T11:10:19;101228.63;;;5.67;68.30
45541;BME280;31265;49.680;8.608;2023-03-01T11:12:48;101224.44;;;5.49;69.17
45541;BME280;31265;49.680;8.608;2023-03-01T11:15:25;101216.66;;;5.59;67.21
45541;BME280;31265;49.680;8.608;2023-03-01T11:17:56;101224.84;;;5.76;70.51
45541;BME280;31265;49.680;8.608;2023-03-01T11:20:42;101211.28;;;5.89;71.42
45541;BME280;31265;49.680;8.608;2023-03-01T11:23:12;101217.41;;;6.18;68.68
45541;BME280;31265;49.680;8.608;2023-03-01T11:25:44;101214.09;;;6.25;66.34
45541;BME280;31265;49.680;8.608;2023-03-01T11:28:17;101207.78;;;6.36;70.68
45541;BME280;31265;49.680;8.608;2023-03-01T11:30:50;101211.91;;;6.54;68.08
45541;BME280;31265;49.680;8.608;2023-03-01T11:33:39;101201.50;;;6.35;68.05
45541;BME280;31265;49.680;8.608;2023-03-01T11:36:16;101207.81;;;6.66;66.68
45541;BME280;31265;49.680;8.608;2023-03-01T11:38:49;101211.88;;;6.89;63.54
45541;BME280;31265;49.680;8.608;2023-03-01T11:41:20;101210.16;;;6.86;63.14
45541;BME280;31265;49.680;8.608;2023-03-01T11:43:54;101211.66;;;6.87;63.79
45541;BME280;31265;49.680;8.608;2023-03-01T11:46:39;101195.00;;;6.99;62.67
45541;BME280;31265;49.680;8.608;2023-03-01T11:49:38;101190.53;;;6.65;62.31
45541;BME280;31265;49.680;8.608;2023-03-01T11:52:20;101184.19;;;7.01;64.69
45541;BME280;31265;49.680;8.608;2023-03-01T11:55:07;101186.03;;;6.93;62.55
45541;BME280;31265;49.680;8.608;2023-03-01T11:57:49;101179.94;;;7.24;61.42
45541;BME280;31265;49.680;8.608;2023-03-01T12:00:49;101180.00;;;7.43;61.96
45541;BME280;31265;49.680;8.608;2023-03-01T12:03:51;101175.06;;;7.11;60.66
45541;BME280;31265;49.680;8.608;2023-03-01T12:06:35;101158.41;;;7.42;59.03
45541;BME280;31265;49.680;8.608;2023-03-01T12:09:36;101149.88;;;7.21;59.25
45541;BME280;31265;49.680;8.608;2023-03-01T12:12:25;101156.47;;;7.12;59.93
45541;BME280;31265;49.680;8.608;2023-03-01T12:15:06;101142.56;;;7.23;59.28
45541;BME280;31265;49.680;8.608;2023-03-01T12:17:51;101134.84;;;7.41;59.12
45541;BME280;31265;49.680;8.608;2023-03-01T12:20:31;101127.28;;;7.41;60.03
45541;BME280;31265;49.680;8.608;2023-03-01T12:23:25;101115.94;;;7.26;59.57
45541;BME280;31265;49.680;8.608;2023-03-01T12:26:01;101115.75;;;7.43;58.34
45541;BME280;31265;49.680;8.608;2023-03-01T12:28:55;101115.22;;;7.63;57.95
45541;BME280;31265;49.680;8.608;2023-03-01T12:31:44;101101.63;;;7.65;59.18
45541;BME280;31265;49.680;8.608;2023-03-01T12:34:30;101095.34;;;7.46;59.30
45541;BME280;31265;49.680;8.608;2023-03-01T12:37:21;101092.19;;;7.93;56.33
45541;BME280;31265;49.680;8.608;2023-03-01T12:40:00;101086.69;;;7.93;55.87
45541;BME280;31265;49.680;8.608;2023-03-01T12:42:40;101080.09;;;7.96;57.15
45541;BME280;31265;49.680;8.608;2023-03-01T12:45:32;101071.25;;;8.16;56.76
45541;BME280;31265;49.680;8.608;2023-03-01T12:48:18;101065.53;;;7.95;56.63
45541;BME280;31265;49.680;8.608;2023-03-01T12:50:53;101062.41;;;8.18;55.68
45541;BME280;31265;49.680;8.608;2023-03-01T12:53:24;101056.38;;;8.19;56.41
45541;BME280;31265;49.680;8.608;2023-03-01T12:55:55;101053.03;;;8.40;54.98
45541;BME280;31265;49.680;8.608;2023-03-01T12:58:32;101047.84;;;8.17;55.28
45541;BME280;31265;49.680;8.608;2023-03-01T13:01:22;101046.16;;;8.14;57.32
45541;BME280;31265;49.680;8.608;2023-03-01T13:04:15;101047.75;;;8.23;55.09
45541;BME280;31265;49.680;8.608;2023-03-01T13:06:54;101036.44;;;8.08;57.47
45541;BME280;31265;49.680;8.608;2023-03-01T13:09:29;101041.03;;;8.51;55.01
45541;BME280;31265;49.680;8.608;2023-03-01T13:11:59;101033.91;;;8.69;54.96
45541;BME280;31265;49.680;8.608;2023-03-01T13:14:37;101031.34;;;8.84;53.29
45541;BME280;31265;49.680;8.608;2023-03-01T13:17:31;101023.06;;;8.71;53.04
45541;BME280;31265;49.680;8.608;2023-03-01T13:20:11;101024.66;;;8.79;54.01